createdAt,value
2023-02-27T00:01:29.614Z,-0.60
2023-02-27T00:03:57.352Z,-0.60
2023-02-27T00:06:24.763Z,-0.60
2023-02-27T00:08:52.030Z,-0.50
2023-02-27T00:11:19.542Z,-0.60
2023-02-27T00:13:47.103Z,-0.60
2023-02-27T00:16:14.588Z,-0.60
2023-02-27T00:18:41.911Z,-0.60
2023-02-27T00:21:09.295Z,-0.70
2023-02-27T00:23:36.684Z,-0.80
2023-02-27T00:26:04.458Z,-0.70
2023-02-27T00:28:31.907Z,-0.70
2023-02-27T00:30:59.611Z,-0.70
2023-02-27T00:33:27.102Z,-0.70
2023-02-27T00:35:58.934Z,-0.70
2023-02-27T00:38:26.791Z,-0.80
2023-02-27T00:40:54.673Z,-0.90
2023-02-27T00:43:22.178Z,-1.10
2023-02-27T00:45:49.709Z,-1.00
2023-02-27T00:48:17.026Z,-1.10
2023-02-27T00:50:44.555Z,-1.00
2023-02-27T00:53:12.001Z,-0.80
2023-02-27T00:55:39.423Z,-0.70
2023-02-27T00:58:06.845Z,-0.70
2023-02-27T01:00:34.298Z,-0.70
2023-02-27T01:03:01.680Z,-0.70
2023-02-27T01:05:29.021Z,-0.90
2023-02-27T01:07:56.509Z,-0.80
2023-02-27T01:10:23.993Z,-0.80
2023-02-27T01:12:51.331Z,-0.80
2023-02-27T01:15:18.848Z,-0.80
2023-02-27T01:17:48.251Z,-0.80
2023-02-27T01:20:15.890Z,-0.60
2023-02-27T01:22:43.402Z,-0.70
2023-02-27T01:25:11.196Z,-0.60
2023-02-27T01:27:38.624Z,-0.70
2023-02-27T01:30:07.056Z,-0.60
2023-02-27T01:32:34.622Z,-0.50
2023-02-27T01:35:02.128Z,-0.50
2023-02-27T01:37:29.555Z,-0.60
2023-02-27T01:39:56.820Z,-0.70
2023-02-27T01:42:26.313Z,-0.70
2023-02-27T01:45:12.067Z,-0.80
2023-02-27T01:47:45.005Z,-0.70
2023-02-27T01:50:12.909Z,-0.60
2023-02-27T01:52:40.669Z,-0.50
2023-02-27T01:55:09.195Z,-0.50
2023-02-27T01:57:36.388Z,-0.70
2023-02-27T02:00:04.645Z,-0.70
2023-02-27T02:02:37.315Z,-0.80
2023-02-27T02:05:05.751Z,-0.70
2023-02-27T02:07:33.112Z,-0.70
2023-02-27T02:10:00.701Z,-0.80
2023-02-27T02:12:32.302Z,-1.00
2023-02-27T02:14:59.663Z,-0.90
2023-02-27T02:18:21.353Z,-0.80
2023-02-27T02:21:28.647Z,-0.70
2023-02-27T02:24:20.615Z,-0.80
2023-02-27T02:27:19.288Z,-0.80
2023-02-27T02:30:10.499Z,-0.80
2023-02-27T02:32:43.488Z,-0.90
2023-02-27T02:36:07.422Z,-0.80
2023-02-27T02:38:53.348Z,-0.90
2023-02-27T02:41:44.252Z,-0.90
2023-02-27T02:44:24.727Z,-0.80
2023-02-27T02:47:03.994Z,-0.90
2023-02-27T02:49:52.427Z,-0.90
2023-02-27T02:52:39.823Z,-0.80
2023-02-27T02:55:14.729Z,-0.90
2023-02-27T02:57:48.740Z,-0.80
2023-02-27T03:00:21.541Z,-0.80
2023-02-27T03:03:35.498Z,-0.80
2023-02-27T03:06:20.967Z,-0.80
2023-02-27T03:08:56.297Z,-0.60
2023-02-27T03:11:24.599Z,-0.70
2023-02-27T03:14:03.555Z,-0.80
2023-02-27T03:16:34.824Z,-0.80
2023-02-27T03:19:20.768Z,-0.90
2023-02-27T03:22:01.901Z,-1.10
2023-02-27T03:24:35.461Z,-1.10
2023-02-27T03:27:03.281Z,-1.10
2023-02-27T03:29:46.465Z,-1.00
2023-02-27T03:32:22.878Z,-1.10
2023-02-27T03:34:50.290Z,-1.00
2023-02-27T03:37:24.223Z,-1.10
2023-02-27T03:40:10.047Z,-1.10
2023-02-27T03:42:53.132Z,-1.20
2023-02-27T03:45:28.909Z,-1.10
2023-02-27T03:47:56.440Z,-1.00
2023-02-27T03:50:23.830Z,-1.00
2023-02-27T03:52:51.208Z,-0.90
2023-02-27T03:55:22.010Z,-0.90
2023-02-27T03:57:50.291Z,-0.90
2023-02-27T04:00:23.061Z,-1.00
2023-02-27T04:02:51.904Z,-1.00
2023-02-27T04:05:19.987Z,-0.90
2023-02-27T04:08:09.118Z,-1.00
2023-02-27T04:10:54.602Z,-1.00
2023-02-27T04:13:24.892Z,-0.90
2023-02-27T04:16:29.080Z,-1.00
2023-02-27T04:19:11.610Z,-0.90
2023-02-27T04:22:16.292Z,-0.90
2023-02-27T04:25:02.480Z,-1.00
2023-02-27T04:27:41.326Z,-1.00
2023-02-27T04:30:08.782Z,-1.00
2023-02-27T04:33:00.771Z,-1.00
2023-02-27T04:35:41.228Z,-1.00
2023-02-27T04:38:27.166Z,-1.00
2023-02-27T04:41:03.641Z,-0.90
2023-02-27T04:43:30.959Z,-1.00
2023-02-27T04:45:59.333Z,-1.00
2023-02-27T04:48:29.674Z,-1.00
2023-02-27T04:51:17.293Z,-1.10
2023-02-27T04:54:11.483Z,-1.30
2023-02-27T04:56:42.548Z,-1.30
2023-02-27T04:59:27.059Z,-1.20
2023-02-27T05:02:04.739Z,-1.20
2023-02-27T05:04:34.292Z,-1.30
2023-02-27T05:07:02.037Z,-1.20
2023-02-27T05:09:29.410Z,-1.20
2023-02-27T05:12:05.867Z,-1.40
2023-02-27T05:14:39.508Z,-1.40
2023-02-27T05:17:15.649Z,-1.60
2023-02-27T05:19:43.091Z,-1.50
2023-02-27T05:22:33.833Z,-1.50
2023-02-27T05:25:16.653Z,-1.50
2023-02-27T05:28:31.312Z,-1.60
2023-02-27T05:31:05.897Z,-1.60
2023-02-27T05:33:46.094Z,-1.70
2023-02-27T05:36:19.574Z,-1.70
2023-02-27T05:38:52.191Z,-1.70
2023-02-27T05:41:47.940Z,-1.60
2023-02-27T05:44:24.197Z,-1.70
2023-02-27T05:46:57.733Z,-1.90
2023-02-27T05:49:32.891Z,-2.00
2023-02-27T05:52:02.411Z,-1.90
2023-02-27T05:54:37.835Z,-2.00
2023-02-27T05:57:07.909Z,-2.00
2023-02-27T05:59:44.164Z,-1.90
2023-02-27T06:02:11.972Z,-2.00
2023-02-27T06:04:39.578Z,-2.00
2023-02-27T06:07:08.522Z,-1.90
2023-02-27T06:09:36.087Z,-2.00
2023-02-27T06:12:03.444Z,-1.90
2023-02-27T06:14:31.117Z,-1.90
2023-02-27T06:16:58.613Z,-2.00
2023-02-27T06:19:26.193Z,-2.10
2023-02-27T06:21:53.745Z,-2.10
2023-02-27T06:24:22.238Z,-2.10
2023-02-27T06:26:49.542Z,-2.10
2023-02-27T06:29:17.785Z,-2.10
2023-02-27T06:31:45.089Z,-2.00
2023-02-27T06:34:12.462Z,-2.00
2023-02-27T06:36:39.882Z,-2.20
2023-02-27T06:39:07.185Z,-2.00
2023-02-27T06:41:34.577Z,-1.80
2023-02-27T06:44:02.018Z,-1.70
2023-02-27T06:46:29.793Z,-1.80
2023-02-27T06:48:57.629Z,-2.00
2023-02-27T06:51:25.054Z,-2.10
2023-02-27T06:53:52.646Z,-2.00
2023-02-27T06:56:20.199Z,-2.00
2023-02-27T06:58:47.648Z,-1.90
2023-02-27T07:01:15.248Z,-1.60
2023-02-27T07:03:42.715Z,-1.60
2023-02-27T07:06:13.856Z,-1.50
2023-02-27T07:09:01.579Z,-1.40
2023-02-27T07:11:28.608Z,-1.20
2023-02-27T07:13:56.074Z,-1.20
2023-02-27T07:16:23.659Z,-1.10
2023-02-27T07:18:51.089Z,-1.30
2023-02-27T07:21:18.469Z,-1.40
2023-02-27T07:23:45.759Z,-1.20
2023-02-27T07:26:13.344Z,-1.20
2023-02-27T07:28:41.026Z,-1.30
2023-02-27T07:31:08.396Z,-1.20
2023-02-27T07:33:35.968Z,-1.20
2023-02-27T07:36:03.451Z,-1.10
2023-02-27T07:38:32.691Z,-1.20
2023-02-27T07:41:00.100Z,-1.10
2023-02-27T07:43:27.494Z,-1.10
2023-02-27T07:45:54.911Z,-1.00
2023-02-27T07:48:23.800Z,-0.90
2023-02-27T07:50:51.187Z,-0.60
2023-02-27T07:53:18.584Z,-0.60
2023-02-27T07:55:46.722Z,-0.60
2023-02-27T07:58:14.087Z,-0.50
2023-02-27T08:00:41.342Z,-0.40
2023-02-27T08:03:09.070Z,-0.50
2023-02-27T08:05:36.658Z,-0.60
2023-02-27T08:08:04.034Z,-0.40
2023-02-27T08:10:31.386Z,-0.40
2023-02-27T08:12:58.741Z,-0.40
2023-02-27T08:15:26.198Z,-0.40
2023-02-27T08:17:53.770Z,-0.20
2023-02-27T08:20:24.818Z,-0.10
2023-02-27T08:22:52.333Z,-0.10
2023-02-27T08:25:20.740Z,-0.40
2023-02-27T08:27:48.486Z,-0.30
2023-02-27T08:30:17.325Z,-0.40
2023-02-27T08:32:46.179Z,-0.60
2023-02-27T08:35:14.025Z,-0.80
2023-02-27T08:37:41.485Z,-0.80
2023-02-27T08:40:11.289Z,-0.60
2023-02-27T08:42:38.712Z,-0.60
2023-02-27T08:45:06.636Z,-0.50
2023-02-27T08:47:33.997Z,-0.70
2023-02-27T08:50:01.260Z,-0.90
2023-02-27T08:52:28.653Z,-0.80
2023-02-27T08:54:56.270Z,-0.60
2023-02-27T08:57:23.628Z,-0.60
2023-02-27T08:59:51.007Z,-0.50
2023-02-27T09:02:18.591Z,-0.60
2023-02-27T09:04:46.026Z,-0.40
2023-02-27T09:07:13.608Z,-0.30
2023-02-27T09:09:41.065Z,-0.30
2023-02-27T09:12:08.564Z,-0.10
2023-02-27T09:14:35.892Z,-0.40
2023-02-27T09:17:03.500Z,-0.40
2023-02-27T09:19:30.958Z,-0.60
2023-02-27T09:21:58.265Z,-0.20
2023-02-27T09:24:25.661Z,0.20
2023-02-27T09:26:53.292Z,0.40
2023-02-27T09:29:21.733Z,0.60
2023-02-27T09:31:49.142Z,0.40
2023-02-27T09:34:16.724Z,0.30
2023-02-27T09:36:44.105Z,-0.20
2023-02-27T09:39:11.577Z,-0.30
2023-02-27T09:42:07.418Z,-0.10
2023-02-27T09:44:46.996Z,-0.30
2023-02-27T09:47:24.984Z,-0.20
2023-02-27T09:50:01.327Z,-0.20
2023-02-27T09:52:30.199Z,-0.20
2023-02-27T09:54:57.577Z,-0.30
2023-02-27T09:57:31.188Z,0.00
2023-02-27T10:00:01.515Z,-0.20
2023-02-27T10:02:39.399Z,-0.30
2023-02-27T10:05:36.578Z,-0.20
2023-02-27T10:08:27.061Z,0.10
2023-02-27T10:11:02.255Z,0.20
2023-02-27T10:13:43.011Z,0.20
2023-02-27T10:16:15.200Z,0.00
2023-02-27T10:18:51.542Z,0.00
2023-02-27T10:21:24.854Z,-0.10
2023-02-27T10:24:18.695Z,0.10
2023-02-27T10:26:46.006Z,0.20
2023-02-27T10:29:19.902Z,0.30
2023-02-27T10:31:47.966Z,0.50
2023-02-27T10:34:16.920Z,0.60
2023-02-27T10:36:45.833Z,0.80
2023-02-27T10:39:16.198Z,1.00
2023-02-27T10:41:43.961Z,0.70
2023-02-27T10:44:14.495Z,0.40
2023-02-27T10:46:42.084Z,0.20
2023-02-27T10:49:30.431Z,0.50
2023-02-27T10:52:07.708Z,0.30
2023-02-27T10:54:35.318Z,0.00
2023-02-27T10:57:02.749Z,0.10
2023-02-27T10:59:32.706Z,0.20
2023-02-27T11:02:01.725Z,0.30
2023-02-27T11:04:29.015Z,0.10
2023-02-27T11:06:56.426Z,-0.10
2023-02-27T11:09:25.616Z,-0.10
2023-02-27T11:11:53.230Z,-0.20
2023-02-27T11:14:28.414Z,-0.30
2023-02-27T11:17:00.559Z,-0.40
2023-02-27T11:19:38.439Z,-0.40
2023-02-27T11:22:20.521Z,-0.40
2023-02-27T11:24:48.459Z,-0.60
2023-02-27T11:27:29.813Z,-0.60
2023-02-27T11:30:02.131Z,-0.60
2023-02-27T11:32:42.600Z,-0.60
2023-02-27T11:35:32.436Z,-0.30
2023-02-27T11:38:04.648Z,0.00
2023-02-27T11:40:33.459Z,-0.10
2023-02-27T11:43:28.155Z,0.00
2023-02-27T11:46:04.262Z,-0.50
2023-02-27T11:48:59.090Z,-0.80
2023-02-27T11:51:52.811Z,-0.70
2023-02-27T11:54:52.057Z,-0.70
2023-02-27T11:57:29.174Z,-0.80
2023-02-27T12:00:20.167Z,-0.70
2023-02-27T12:02:59.793Z,-0.70
2023-02-27T12:05:51.380Z,-0.70
2023-02-27T12:08:26.902Z,-0.40
2023-02-27T12:11:17.291Z,-0.70
2023-02-27T12:13:47.946Z,-0.30
2023-02-27T12:16:32.461Z,-0.30
2023-02-27T12:19:19.043Z,-0.20
2023-02-27T12:21:51.656Z,-0.30
2023-02-27T12:24:23.739Z,-0.40
2023-02-27T12:26:56.529Z,-0.30
2023-02-27T12:29:30.923Z,-0.30
2023-02-27T12:32:14.929Z,-0.10
2023-02-27T12:34:53.017Z,-0.40
2023-02-27T12:37:24.657Z,-0.30
2023-02-27T12:39:52.740Z,0.00
2023-02-27T12:42:38.463Z,-0.10
2023-02-27T12:45:27.673Z,-0.20
2023-02-27T12:48:33.449Z,-0.20
2023-02-27T12:51:17.524Z,-0.10
2023-02-27T12:53:44.713Z,0.10
2023-02-27T12:56:18.428Z,0.00
2023-02-27T12:58:49.114Z,-0.10
2023-02-27T13:01:28.280Z,-0.20
2023-02-27T13:04:33.857Z,0.00
2023-02-27T13:07:27.029Z,-0.30
2023-02-27T13:10:01.860Z,-0.20
2023-02-27T13:12:35.262Z,-0.20
2023-02-27T13:15:12.001Z,0.00
2023-02-27T13:18:29.352Z,0.20
2023-02-27T13:21:08.735Z,0.20
2023-02-27T13:23:38.564Z,0.10
2023-02-27T13:26:14.854Z,0.40
2023-02-27T13:28:42.249Z,0.20
2023-02-27T13:31:42.090Z,0.30
2023-02-27T13:34:18.519Z,0.40
2023-02-27T13:36:47.760Z,0.10
2023-02-27T13:39:46.270Z,-0.20
2023-02-27T13:42:30.856Z,0.20
2023-02-27T13:45:02.752Z,0.50
2023-02-27T13:47:30.086Z,0.30
2023-02-27T13:50:26.751Z,0.40
2023-02-27T13:52:54.218Z,0.70
2023-02-27T13:55:35.470Z,0.80
2023-02-27T13:58:03.077Z,0.70
2023-02-27T14:00:31.913Z,0.60
2023-02-27T14:03:07.148Z,0.70
2023-02-27T14:05:39.695Z,0.80
2023-02-27T14:08:15.286Z,0.90
2023-02-27T14:11:12.968Z,0.90
2023-02-27T14:13:50.145Z,0.80
2023-02-27T14:16:42.067Z,0.80
2023-02-27T14:19:22.992Z,1.00
2023-02-27T14:22:03.824Z,1.00
2023-02-27T14:24:39.421Z,1.00
2023-02-27T14:27:29.813Z,1.10
2023-02-27T14:29:59.585Z,1.20
2023-02-27T14:32:35.887Z,1.10
2023-02-27T14:35:05.836Z,1.20
2023-02-27T14:37:33.276Z,1.20
2023-02-27T14:40:02.881Z,0.70
2023-02-27T14:42:54.477Z,0.60
2023-02-27T14:45:25.537Z,0.60
2023-02-27T14:47:53.038Z,0.60
2023-02-27T14:50:29.845Z,0.30
2023-02-27T14:52:58.073Z,0.30
2023-02-27T14:55:30.174Z,0.50
2023-02-27T14:58:17.609Z,0.50
2023-02-27T15:01:05.216Z,0.40
2023-02-27T15:03:46.658Z,0.60
2023-02-27T15:06:21.462Z,0.80
2023-02-27T15:08:50.675Z,0.70
2023-02-27T15:11:20.627Z,0.70
2023-02-27T15:13:49.692Z,0.80
2023-02-27T15:16:22.259Z,0.80
2023-02-27T15:18:57.260Z,0.80
2023-02-27T15:21:25.846Z,0.70
2023-02-27T15:24:04.912Z,0.60
2023-02-27T15:26:36.299Z,0.40
2023-02-27T15:29:05.098Z,0.40
2023-02-27T15:31:32.587Z,0.40
2023-02-27T15:34:01.267Z,0.50
2023-02-27T15:36:31.738Z,0.40
2023-02-27T15:39:17.658Z,0.40
2023-02-27T15:41:52.665Z,0.40
2023-02-27T15:44:24.744Z,0.30
2023-02-27T15:46:52.348Z,0.50
2023-02-27T15:49:21.438Z,0.70
2023-02-27T15:52:09.331Z,0.80
2023-02-27T15:54:37.257Z,0.70
2023-02-27T15:57:04.899Z,0.60
2023-02-27T15:59:33.949Z,0.70
2023-02-27T16:02:04.385Z,0.80
2023-02-27T16:04:33.588Z,0.70
2023-02-27T16:07:06.212Z,0.70
2023-02-27T16:09:35.250Z,0.60
2023-02-27T16:12:23.521Z,0.50
2023-02-27T16:14:53.075Z,0.60
2023-02-27T16:17:27.690Z,0.70
2023-02-27T16:19:56.056Z,0.50
2023-02-27T16:22:23.621Z,0.60
2023-02-27T16:24:51.483Z,0.60
2023-02-27T16:27:29.237Z,0.50
2023-02-27T16:29:57.829Z,0.30
2023-02-27T16:32:31.006Z,0.00
2023-02-27T16:35:04.114Z,0.10
2023-02-27T16:37:33.118Z,0.10
2023-02-27T16:40:00.488Z,0.20
2023-02-27T16:42:27.950Z,0.40
2023-02-27T16:44:55.399Z,0.40
2023-02-27T16:47:23.144Z,0.50
2023-02-27T16:49:51.260Z,0.40
2023-02-27T16:52:18.597Z,0.50
2023-02-27T16:54:45.971Z,0.50
2023-02-27T16:57:14.274Z,0.40
2023-02-27T16:59:41.953Z,0.40
2023-02-27T17:02:14.345Z,0.40
2023-02-27T17:04:48.100Z,0.20
2023-02-27T17:07:17.128Z,0.20
2023-02-27T17:09:45.252Z,0.30
2023-02-27T17:12:12.646Z,0.20
2023-02-27T17:14:40.029Z,0.10
2023-02-27T17:17:07.574Z,0.10
2023-02-27T17:19:35.064Z,0.10
2023-02-27T17:22:02.393Z,0.10
2023-02-27T17:24:29.970Z,0.20
2023-02-27T17:26:57.812Z,0.10
2023-02-27T17:29:25.107Z,0.20
2023-02-27T17:31:53.283Z,0.20
2023-02-27T17:34:20.632Z,0.30
2023-02-27T17:36:49.327Z,0.20
2023-02-27T17:39:17.005Z,0.30
2023-02-27T17:41:44.601Z,0.30
2023-02-27T17:44:12.240Z,0.20
2023-02-27T17:46:39.771Z,0.10
2023-02-27T17:49:07.307Z,0.20
2023-02-27T17:51:35.001Z,0.20
2023-02-27T17:54:03.252Z,0.10
2023-02-27T17:56:30.924Z,0.20
2023-02-27T17:58:58.697Z,0.30
2023-02-27T18:01:26.810Z,0.20
2023-02-27T18:03:55.171Z,0.20
2023-02-27T18:06:23.194Z,0.10
2023-02-27T18:08:50.654Z,0.20
2023-02-27T18:11:19.664Z,0.20
2023-02-27T18:13:47.322Z,0.20
2023-02-27T18:16:14.814Z,0.10
2023-02-27T18:18:42.959Z,-0.10
2023-02-27T18:21:20.387Z,-0.20
2023-02-27T18:23:48.357Z,-0.10
2023-02-27T18:26:28.905Z,0.00
2023-02-27T18:29:02.696Z,-0.10
2023-02-27T18:31:32.090Z,-0.10
2023-02-27T18:33:59.994Z,0.00
2023-02-27T18:36:28.687Z,0.10
2023-02-27T18:38:56.396Z,0.20
2023-02-27T18:41:23.867Z,0.20
2023-02-27T18:43:51.287Z,0.20
2023-02-27T18:46:19.139Z,0.30
2023-02-27T18:48:46.920Z,0.30
2023-02-27T18:51:15.725Z,0.30
2023-02-27T18:53:44.618Z,0.30
2023-02-27T18:56:12.292Z,0.30
2023-02-27T18:58:40.374Z,0.10
2023-02-27T19:01:07.914Z,0.00
2023-02-27T19:03:35.950Z,0.00
2023-02-27T19:06:03.672Z,-0.10
2023-02-27T19:08:31.856Z,0.00
2023-02-27T19:10:59.539Z,0.00
2023-02-27T19:13:27.051Z,0.00
2023-02-27T19:15:54.659Z,0.00
2023-02-27T19:18:22.180Z,0.10
2023-02-27T19:20:49.638Z,0.10
2023-02-27T19:23:17.096Z,0.10
2023-02-27T19:25:46.204Z,0.10
2023-02-27T19:28:14.744Z,0.10
2023-02-27T19:30:42.076Z,0.20
2023-02-27T19:33:09.428Z,0.00
2023-02-27T19:35:39.153Z,0.00
2023-02-27T19:38:06.626Z,0.00
2023-02-27T19:40:34.201Z,0.00
2023-02-27T19:43:01.595Z,0.00
2023-02-27T19:45:29.430Z,-0.20
2023-02-27T19:47:56.761Z,-0.30
2023-02-27T19:50:24.311Z,-0.30
2023-02-27T19:52:52.533Z,-0.30
2023-02-27T19:55:19.896Z,-0.40
2023-02-27T19:57:47.520Z,-0.30
2023-02-27T20:00:15.810Z,-0.40
2023-02-27T20:02:43.237Z,-0.40
2023-02-27T20:05:12.359Z,-0.30
2023-02-27T20:07:40.689Z,-0.30
2023-02-27T20:10:08.286Z,-0.40
2023-02-27T20:12:35.696Z,-0.40
2023-02-27T20:15:09.059Z,-0.20
2023-02-27T20:17:36.693Z,-0.30
2023-02-27T20:20:05.332Z,-0.20
2023-02-27T20:22:33.478Z,-0.20
2023-02-27T20:25:00.946Z,-0.40
2023-02-27T20:27:28.560Z,-0.50
2023-02-27T20:29:56.597Z,-0.50
2023-02-27T20:32:24.514Z,-0.40
2023-02-27T20:34:53.651Z,-0.50
2023-02-27T20:37:22.194Z,-0.40
2023-02-27T20:39:50.218Z,-0.60
2023-02-27T20:42:17.521Z,-0.50
2023-02-27T20:44:45.112Z,-0.30
2023-02-27T20:47:12.546Z,-0.40
2023-02-27T20:49:39.971Z,-0.40
2023-02-27T20:52:07.343Z,-0.40
2023-02-27T20:54:34.835Z,-0.40
2023-02-27T20:57:02.293Z,-0.40
2023-02-27T20:59:29.817Z,-0.50
2023-02-27T21:01:57.233Z,-0.60
2023-02-27T21:04:47.658Z,-0.60
2023-02-27T21:07:19.037Z,-0.60
2023-02-27T21:09:46.385Z,-0.70
2023-02-27T21:12:13.810Z,-0.60
2023-02-27T21:14:44.288Z,-0.70
2023-02-27T21:17:12.083Z,-0.80
2023-02-27T21:19:40.258Z,-0.70
2023-02-27T21:22:11.413Z,-0.80
2023-02-27T21:24:39.287Z,-0.80
2023-02-27T21:27:06.729Z,-0.80
2023-02-27T21:29:34.112Z,-0.70
2023-02-27T21:32:01.967Z,-0.60
2023-02-27T21:34:29.628Z,-0.70
2023-02-27T21:36:57.077Z,-0.70
2023-02-27T21:39:26.436Z,-0.70
2023-02-27T21:41:54.045Z,-0.80
2023-02-27T21:44:22.359Z,-0.80
2023-02-27T21:46:49.815Z,-0.90
2023-02-27T21:49:25.187Z,-1.00
2023-02-27T21:51:52.557Z,-1.00
2023-02-27T21:54:19.975Z,-1.00
2023-02-27T21:56:48.250Z,-0.90
2023-02-27T21:59:15.996Z,-1.00
2023-02-27T22:01:47.579Z,-0.90
2023-02-27T22:04:16.290Z,-0.60
2023-02-27T22:06:43.615Z,-0.70
2023-02-27T22:09:10.956Z,-1.00
2023-02-27T22:11:41.056Z,-0.90
2023-02-27T22:14:08.791Z,-0.80
2023-02-27T22:16:36.187Z,-0.80
2023-02-27T22:19:07.872Z,-0.80
2023-02-27T22:21:35.940Z,-0.80
2023-02-27T22:24:04.230Z,-0.80
2023-02-27T22:26:32.410Z,-0.80
2023-02-27T22:28:59.862Z,-0.80
2023-02-27T22:31:29.885Z,-0.80
2023-02-27T22:34:03.085Z,-0.70
2023-02-27T22:36:31.102Z,-0.70
2023-02-27T22:38:58.741Z,-0.80
2023-02-27T22:41:28.630Z,-0.90
2023-02-27T22:43:56.555Z,-1.00
2023-02-27T22:46:28.912Z,-1.20
2023-02-27T22:48:57.529Z,-1.10
2023-02-27T22:51:25.609Z,-1.00
2023-02-27T22:53:54.341Z,-1.10
2023-02-27T22:56:21.769Z,-1.00
2023-02-27T22:58:49.131Z,-0.90
2023-02-27T23:01:18.153Z,-1.00
2023-02-27T23:03:46.673Z,-1.10
2023-02-27T23:06:16.476Z,-1.20
2023-02-27T23:08:44.134Z,-1.10
2023-02-27T23:11:12.251Z,-1.20
2023-02-27T23:13:39.887Z,-1.20
2023-02-27T23:16:11.959Z,-1.20
2023-02-27T23:18:46.943Z,-1.20
2023-02-27T23:21:15.609Z,-1.30
2023-02-27T23:23:43.389Z,-1.30
2023-02-27T23:26:10.836Z,-1.30
2023-02-27T23:28:38.308Z,-1.20
2023-02-27T23:31:06.362Z,-1.20
2023-02-27T23:33:33.890Z,-1.10
2023-02-27T23:36:01.841Z,-1.20
2023-02-27T23:38:29.292Z,-1.20
2023-02-27T23:40:56.796Z,-1.20
2023-02-27T23:43:24.191Z,-1.10
2023-02-27T23:45:51.687Z,-1.00
2023-02-27T23:48:22.457Z,-1.00
2023-02-27T23:50:49.915Z,-0.90
2023-02-27T23:53:17.448Z,-1.20
2023-02-27T23:55:44.905Z,-1.40
2023-02-27T23:58:12.213Z,-1.40
